sensor_id;sensor_type;location;lat;lon;timestamp;P1;durP1;ratioP1;P2;durP2;ratioP2
65533;SDS011;53640;55.838;37.184;2023-02-12T00:00:48;4.22;;;2.53;;
65533;SDS011;53640;55.838;37.184;2023-02-12T00:03:14;2.67;;;2.03;;
65533;SDS011;53640;55.838;37.184;2023-02-12T00:05:40;3.47;;;2.20;;
65533;SDS011;53640;55.838;37.184;2023-02-12T00:08:07;3.17;;;2.25;;
65533;SDS011;53640;55.838;37.184;2023-02-12T00:10:42;3.70;;;2.88;;
65533;SDS011;53640;55.838;37.184;2023-02-12T00:15:39;5.25;;;2.67;;
65533;SDS011;53640;55.838;37.184;2023-02-12T00:18:07;2.85;;;2.30;;
65533;SDS011;53640;55.838;37.184;2023-02-12T00:20:34;3.42;;;2.40;;
65533;SDS011;53640;55.838;37.184;2023-02-12T00:23:01;2.80;;;2.20;;
65533;SDS011;53640;55.838;37.184;2023-02-12T00:25:28;4.25;;;2.50;;
65533;SDS011;53640;55.838;37.184;2023-02-12T00:27:55;5.70;;;3.00;;
65533;SDS011;53640;55.838;37.184;2023-02-12T00:30:24;3.47;;;2.50;;
65533;SDS011;53640;55.838;37.184;2023-02-12T00:32:54;3.08;;;2.42;;
65533;SDS011;53640;55.838;37.184;2023-02-12T00:35:20;5.32;;;2.60;;
65533;SDS011;53640;55.838;37.184;2023-02-12T00:37:50;6.43;;;2.72;;
65533;SDS011;53640;55.838;37.184;2023-02-12T00:40:16;5.43;;;2.60;;
65533;SDS011;53640;55.838;37.184;2023-02-12T00:42:43;4.47;;;2.78;;
65533;SDS011;53640;55.838;37.184;2023-02-12T00:45:10;3.90;;;2.55;;
65533;SDS011;53640;55.838;37.184;2023-02-12T00:47:36;5.43;;;3.05;;
65533;SDS011;53640;55.838;37.184;2023-02-12T00:50:03;4.10;;;2.88;;
65533;SDS011;53640;55.838;37.184;2023-02-12T00:52:30;4.53;;;2.55;;
65533;SDS011;53640;55.838;37.184;2023-02-12T00:54:57;3.13;;;2.30;;
65533;SDS011;53640;55.838;37.184;2023-02-12T00:57:23;2.97;;;2.42;;
65533;SDS011;53640;55.838;37.184;2023-02-12T00:59:50;3.85;;;2.42;;
65533;SDS011;53640;55.838;37.184;2023-02-12T01:02:19;3.83;;;2.63;;
65533;SDS011;53640;55.838;37.184;2023-02-12T01:04:46;6.68;;;3.00;;
65533;SDS011;53640;55.838;37.184;2023-02-12T01:07:13;6.05;;;2.25;;
65533;SDS011;53640;55.838;37.184;2023-02-12T01:09:40;4.30;;;2.85;;
65533;SDS011;53640;55.838;37.184;2023-02-12T01:12:07;6.88;;;3.20;;
65533;SDS011;53640;55.838;37.184;2023-02-12T01:14:33;4.63;;;2.53;;
65533;SDS011;53640;55.838;37.184;2023-02-12T01:16:59;3.97;;;2.53;;
65533;SDS011;53640;55.838;37.184;2023-02-12T01:19:26;3.95;;;2.53;;
65533;SDS011;53640;55.838;37.184;2023-02-12T01:21:53;2.90;;;1.80;;
65533;SDS011;53640;55.838;37.184;2023-02-12T01:24:20;7.47;;;1.90;;
65533;SDS011;53640;55.838;37.184;2023-02-12T01:26:46;2.88;;;1.80;;
65533;SDS011;53640;55.838;37.184;2023-02-12T01:29:13;4.82;;;2.15;;
65533;SDS011;53640;55.838;37.184;2023-02-12T01:31:40;3.78;;;2.20;;
65533;SDS011;53640;55.838;37.184;2023-02-12T01:34:08;3.22;;;1.75;;
65533;SDS011;53640;55.838;37.184;2023-02-12T01:36:37;2.53;;;1.90;;
65533;SDS011;53640;55.838;37.184;2023-02-12T01:39:04;2.78;;;1.98;;
65533;SDS011;53640;55.838;37.184;2023-02-12T01:41:34;3.10;;;1.80;;
65533;SDS011;53640;55.838;37.184;2023-02-12T01:44:10;2.05;;;1.70;;
65533;SDS011;53640;55.838;37.184;2023-02-12T01:46:47;2.60;;;1.70;;
65533;SDS011;53640;55.838;37.184;2023-02-12T01:49:32;3.55;;;2.13;;
65533;SDS011;53640;55.838;37.184;2023-02-12T01:52:19;1.55;;;1.45;;
65533;SDS011;53640;55.838;37.184;2023-02-12T01:54:55;2.75;;;1.85;;
65533;SDS011;53640;55.838;37.184;2023-02-12T01:57:30;3.50;;;2.08;;
65533;SDS011;53640;55.838;37.184;2023-02-12T02:00:00;2.83;;;1.75;;
65533;SDS011;53640;55.838;37.184;2023-02-12T02:02:41;4.30;;;2.35;;
65533;SDS011;53640;55.838;37.184;2023-02-12T02:05:14;3.05;;;2.20;;
65533;SDS011;53640;55.838;37.184;2023-02-12T02:07:48;6.32;;;2.78;;
65533;SDS011;53640;55.838;37.184;2023-02-12T02:10:15;6.10;;;2.67;;
65533;SDS011;53640;55.838;37.184;2023-02-12T02:12:41;4.75;;;2.72;;
65533;SDS011;53640;55.838;37.184;2023-02-12T02:15:27;5.32;;;3.00;;
65533;SDS011;53640;55.838;37.184;2023-02-12T02:17:58;4.97;;;2.67;;
65533;SDS011;53640;55.838;37.184;2023-02-12T02:35:28;5.93;;;2.88;;
65533;SDS011;53640;55.838;37.184;2023-02-12T02:43:27;6.95;;;2.42;;
65533;SDS011;53640;55.838;37.184;2023-02-12T02:46:02;5.22;;;2.60;;
65533;SDS011;53640;55.838;37.184;2023-02-12T02:48:39;4.65;;;2.45;;
65533;SDS011;53640;55.838;37.184;2023-02-12T02:51:14;4.72;;;2.30;;
65533;SDS011;53640;55.838;37.184;2023-02-12T02:53:51;7.25;;;2.67;;
65533;SDS011;53640;55.838;37.184;2023-02-12T02:56:23;5.78;;;2.38;;
65533;SDS011;53640;55.838;37.184;2023-02-12T02:58:55;5.80;;;2.50;;
65533;SDS011;53640;55.838;37.184;2023-02-12T03:01:27;6.45;;;2.60;;
65533;SDS011;53640;55.838;37.184;2023-02-12T03:06:35;4.47;;;2.30;;
65533;SDS011;53640;55.838;37.184;2023-02-12T03:09:12;7.38;;;2.38;;
65533;SDS011;53640;55.838;37.184;2023-02-12T03:11:44;3.42;;;1.77;;
65533;SDS011;53640;55.838;37.184;2023-02-12T03:17:01;3.80;;;1.60;;
65533;SDS011;53640;55.838;37.184;2023-02-12T03:19:42;3.80;;;1.85;;
65533;SDS011;53640;55.838;37.184;2023-02-12T03:22:13;4.55;;;2.15;;
65533;SDS011;53640;55.838;37.184;2023-02-12T03:24:44;3.58;;;1.80;;
65533;SDS011;53640;55.838;37.184;2023-02-12T03:30:01;4.20;;;1.58;;
65533;SDS011;53640;55.838;37.184;2023-02-12T03:35:21;1.40;;;0.98;;
65533;SDS011;53640;55.838;37.184;2023-02-12T03:40:20;2.28;;;0.85;;
65533;SDS011;53640;55.838;37.184;2023-02-12T03:43:05;2.45;;;1.20;;
65533;SDS011;53640;55.838;37.184;2023-02-12T03:45:48;4.13;;;1.42;;
65533;SDS011;53640;55.838;37.184;2023-02-12T03:50:55;8.10;;;1.15;;
65533;SDS011;53640;55.838;37.184;2023-02-12T03:53:29;1.50;;;0.80;;
65533;SDS011;53640;55.838;37.184;2023-02-12T03:56:01;1.67;;;0.93;;
65533;SDS011;53640;55.838;37.184;2023-02-12T03:58:34;1.70;;;0.80;;
65533;SDS011;53640;55.838;37.184;2023-02-12T04:01:03;2.92;;;0.95;;
65533;SDS011;53640;55.838;37.184;2023-02-12T04:03:30;1.63;;;1.00;;
65533;SDS011;53640;55.838;37.184;2023-02-12T04:05:58;2.03;;;0.70;;
65533;SDS011;53640;55.838;37.184;2023-02-12T04:08:24;1.88;;;0.80;;
65533;SDS011;53640;55.838;37.184;2023-02-12T04:18:41;2.45;;;0.63;;
65533;SDS011;53640;55.838;37.184;2023-02-12T04:21:32;2.83;;;0.80;;
65533;SDS011;53640;55.838;37.184;2023-02-12T04:24:18;2.90;;;1.10;;
65533;SDS011;53640;55.838;37.184;2023-02-12T04:27:07;6.25;;;1.35;;
65533;SDS011;53640;55.838;37.184;2023-02-12T04:32:30;5.22;;;1.10;;
65533;SDS011;53640;55.838;37.184;2023-02-12T04:37:47;3.38;;;1.10;;
65533;SDS011;53640;55.838;37.184;2023-02-12T04:40:20;1.08;;;0.80;;
65533;SDS011;53640;55.838;37.184;2023-02-12T04:42:48;1.75;;;0.80;;
65533;SDS011;53640;55.838;37.184;2023-02-12T04:45:24;3.92;;;1.25;;
65533;SDS011;53640;55.838;37.184;2023-02-12T04:47:52;1.95;;;0.77;;
65533;SDS011;53640;55.838;37.184;2023-02-12T04:50:19;1.77;;;0.77;;
65533;SDS011;53640;55.838;37.184;2023-02-12T04:52:45;2.20;;;0.82;;
65533;SDS011;53640;55.838;37.184;2023-02-12T04:55:13;1.63;;;0.70;;
65533;SDS011;53640;55.838;37.184;2023-02-12T04:57:40;1.77;;;0.80;;
65533;SDS011;53640;55.838;37.184;2023-02-12T05:00:08;1.65;;;0.80;;
65533;SDS011;53640;55.838;37.184;2023-02-12T05:02:37;2.55;;;0.80;;
65533;SDS011;53640;55.838;37.184;2023-02-12T05:05:04;4.03;;;0.80;;
65533;SDS011;53640;55.838;37.184;2023-02-12T05:07:31;5.82;;;0.95;;
65533;SDS011;53640;55.838;37.184;2023-02-12T05:09:57;5.32;;;1.05;;
65533;SDS011;53640;55.838;37.184;2023-02-12T05:12:23;1.63;;;0.80;;
65533;SDS011;53640;55.838;37.184;2023-02-12T05:14:50;2.78;;;0.90;;
65533;SDS011;53640;55.838;37.184;2023-02-12T05:17:16;1.95;;;0.98;;
65533;SDS011;53640;55.838;37.184;2023-02-12T05:19:42;1.67;;;0.85;;
65533;SDS011;53640;55.838;37.184;2023-02-12T05:22:09;0.75;;;0.70;;
65533;SDS011;53640;55.838;37.184;2023-02-12T05:24:36;2.05;;;0.63;;
65533;SDS011;53640;55.838;37.184;2023-02-12T05:27:02;1.67;;;0.77;;
65533;SDS011;53640;55.838;37.184;2023-02-12T05:29:29;1.15;;;0.75;;
65533;SDS011;53640;55.838;37.184;2023-02-12T05:31:55;2.17;;;0.50;;
65533;SDS011;53640;55.838;37.184;2023-02-12T05:34:21;0.80;;;0.70;;
65533;SDS011;53640;55.838;37.184;2023-02-12T05:36:48;1.20;;;0.70;;
65533;SDS011;53640;55.838;37.184;2023-02-12T05:39:14;4.88;;;0.70;;
65533;SDS011;53640;55.838;37.184;2023-02-12T05:41:41;3.83;;;0.85;;
65533;SDS011;53640;55.838;37.184;2023-02-12T05:44:07;1.65;;;0.50;;
65533;SDS011;53640;55.838;37.184;2023-02-12T05:46:36;2.58;;;0.80;;
65533;SDS011;53640;55.838;37.184;2023-02-12T05:49:03;2.63;;;0.80;;
65533;SDS011;53640;55.838;37.184;2023-02-12T05:51:30;1.73;;;0.70;;
65533;SDS011;53640;55.838;37.184;2023-02-12T05:53:57;0.90;;;0.60;;
65533;SDS011;53640;55.838;37.184;2023-02-12T05:56:30;1.88;;;0.88;;
65533;SDS011;53640;55.838;37.184;2023-02-12T05:59:02;5.53;;;0.90;;
65533;SDS011;53640;55.838;37.184;2023-02-12T06:01:35;2.53;;;0.68;;
65533;SDS011;53640;55.838;37.184;2023-02-12T06:04:06;0.98;;;0.50;;
65533;SDS011;53640;55.838;37.184;2023-02-12T06:06:36;2.43;;;1.23;;
65533;SDS011;53640;55.838;37.184;2023-02-12T06:09:05;3.20;;;0.98;;
65533;SDS011;53640;55.838;37.184;2023-02-12T06:11:32;1.17;;;0.52;;
65533;SDS011;53640;55.838;37.184;2023-02-12T06:14:03;2.17;;;0.85;;
65533;SDS011;53640;55.838;37.184;2023-02-12T06:16:31;2.20;;;0.70;;
65533;SDS011;53640;55.838;37.184;2023-02-12T06:18:59;3.40;;;0.90;;
65533;SDS011;53640;55.838;37.184;2023-02-12T06:21:31;2.67;;;0.68;;
65533;SDS011;53640;55.838;37.184;2023-02-12T06:23:59;4.68;;;1.00;;
65533;SDS011;53640;55.838;37.184;2023-02-12T06:26:25;2.33;;;0.75;;
65533;SDS011;53640;55.838;37.184;2023-02-12T06:28:52;2.78;;;0.80;;
65533;SDS011;53640;55.838;37.184;2023-02-12T06:31:20;2.28;;;0.70;;
65533;SDS011;53640;55.838;37.184;2023-02-12T06:36:18;2.35;;;0.82;;
65533;SDS011;53640;55.838;37.184;2023-02-12T06:38:45;1.27;;;0.50;;
65533;SDS011;53640;55.838;37.184;2023-02-12T06:41:12;3.22;;;0.75;;
65533;SDS011;53640;55.838;37.184;2023-02-12T06:43:38;3.13;;;0.90;;
65533;SDS011;53640;55.838;37.184;2023-02-12T06:46:06;1.52;;;0.88;;
65533;SDS011;53640;55.838;37.184;2023-02-12T06:48:33;3.42;;;1.15;;
65533;SDS011;53640;55.838;37.184;2023-02-12T06:51:03;4.75;;;1.00;;
65533;SDS011;53640;55.838;37.184;2023-02-12T06:53:40;0.98;;;0.68;;
65533;SDS011;53640;55.838;37.184;2023-02-12T06:56:08;2.53;;;1.10;;
65533;SDS011;53640;55.838;37.184;2023-02-12T06:58:41;1.70;;;0.80;;
65533;SDS011;53640;55.838;37.184;2023-02-12T07:01:16;2.93;;;1.00;;
65533;SDS011;53640;55.838;37.184;2023-02-12T07:03:51;2.83;;;0.90;;
65533;SDS011;53640;55.838;37.184;2023-02-12T07:06:22;6.15;;;0.80;;
65533;SDS011;53640;55.838;37.184;2023-02-12T07:08:49;0.85;;;0.70;;
65533;SDS011;53640;55.838;37.184;2023-02-12T07:11:15;2.35;;;0.75;;
65533;SDS011;53640;55.838;37.184;2023-02-12T07:13:43;2.13;;;0.73;;
65533;SDS011;53640;55.838;37.184;2023-02-12T07:16:11;3.55;;;0.98;;
65533;SDS011;53640;55.838;37.184;2023-02-12T07:18:40;1.30;;;0.60;;
65533;SDS011;53640;55.838;37.184;2023-02-12T07:21:13;1.25;;;0.80;;
65533;SDS011;53640;55.838;37.184;2023-02-12T07:23:41;0.50;;;0.50;;
65533;SDS011;53640;55.838;37.184;2023-02-12T07:26:26;2.83;;;0.90;;
65533;SDS011;53640;55.838;37.184;2023-02-12T07:28:53;1.80;;;0.90;;
65533;SDS011;53640;55.838;37.184;2023-02-12T07:31:22;5.18;;;1.02;;
65533;SDS011;53640;55.838;37.184;2023-02-12T07:33:53;1.60;;;0.65;;
65533;SDS011;53640;55.838;37.184;2023-02-12T07:36:21;1.13;;;0.63;;
65533;SDS011;53640;55.838;37.184;2023-02-12T07:38:49;3.42;;;0.90;;
65533;SDS011;53640;55.838;37.184;2023-02-12T07:41:20;3.85;;;0.70;;
65533;SDS011;53640;55.838;37.184;2023-02-12T07:43:47;4.25;;;1.15;;
65533;SDS011;53640;55.838;37.184;2023-02-12T07:46:19;0.95;;;0.70;;
65533;SDS011;53640;55.838;37.184;2023-02-12T07:48:49;3.00;;;0.70;;
65533;SDS011;53640;55.838;37.184;2023-02-12T07:51:16;0.80;;;0.68;;
65533;SDS011;53640;55.838;37.184;2023-02-12T07:53:44;1.58;;;0.75;;
65533;SDS011;53640;55.838;37.184;2023-02-12T07:56:11;1.73;;;0.60;;
65533;SDS011;53640;55.838;37.184;2023-02-12T07:58:43;3.60;;;0.80;;
65533;SDS011;53640;55.838;37.184;2023-02-12T08:03:41;3.10;;;1.08;;
65533;SDS011;53640;55.838;37.184;2023-02-12T08:06:12;2.13;;;0.85;;
65533;SDS011;53640;55.838;37.184;2023-02-12T08:08:43;5.72;;;0.82;;
65533;SDS011;53640;55.838;37.184;2023-02-12T08:11:11;1.00;;;0.90;;
65533;SDS011;53640;55.838;37.184;2023-02-12T08:13:39;1.13;;;0.75;;
65533;SDS011;53640;55.838;37.184;2023-02-12T08:16:07;2.38;;;0.70;;
65533;SDS011;53640;55.838;37.184;2023-02-12T08:18:41;1.45;;;0.80;;
65533;SDS011;53640;55.838;37.184;2023-02-12T08:21:08;2.28;;;0.70;;
65533;SDS011;53640;55.838;37.184;2023-02-12T08:23:46;2.22;;;0.88;;
65533;SDS011;53640;55.838;37.184;2023-02-12T08:29:05;3.83;;;0.90;;
65533;SDS011;53640;55.838;37.184;2023-02-12T08:31:37;1.33;;;0.70;;
65533;SDS011;53640;55.838;37.184;2023-02-12T08:34:27;1.58;;;0.70;;
65533;SDS011;53640;55.838;37.184;2023-02-12T08:36:56;1.02;;;0.70;;
65533;SDS011;53640;55.838;37.184;2023-02-12T08:39:24;1.95;;;0.50;;
65533;SDS011;53640;55.838;37.184;2023-02-12T08:41:55;1.35;;;0.70;;
65533;SDS011;53640;55.838;37.184;2023-02-12T08:44:23;1.77;;;0.80;;
65533;SDS011;53640;55.838;37.184;2023-02-12T08:46:50;1.58;;;0.73;;
65533;SDS011;53640;55.838;37.184;2023-02-12T08:49:21;3.13;;;0.88;;
65533;SDS011;53640;55.838;37.184;2023-02-12T08:51:52;1.42;;;0.80;;
65533;SDS011;53640;55.838;37.184;2023-02-12T08:54:22;2.13;;;0.90;;
65533;SDS011;53640;55.838;37.184;2023-02-12T08:56:53;2.28;;;0.70;;
65533;SDS011;53640;55.838;37.184;2023-02-12T08:59:22;2.45;;;0.70;;
65533;SDS011;53640;55.838;37.184;2023-02-12T09:01:53;4.22;;;0.90;;
65533;SDS011;53640;55.838;37.184;2023-02-12T09:04:21;1.48;;;0.60;;
65533;SDS011;53640;55.838;37.184;2023-02-12T09:06:51;2.80;;;0.90;;
65533;SDS011;53640;55.838;37.184;2023-02-12T09:09:20;3.15;;;0.90;;
65533;SDS011;53640;55.838;37.184;2023-02-12T09:11:48;3.60;;;0.82;;
65533;SDS011;53640;55.838;37.184;2023-02-12T09:14:15;1.98;;;0.90;;
65533;SDS011;53640;55.838;37.184;2023-02-12T09:16:43;3.05;;;1.02;;
65533;SDS011;53640;55.838;37.184;2023-02-12T09:19:12;2.13;;;0.98;;
65533;SDS011;53640;55.838;37.184;2023-02-12T09:21:40;3.03;;;1.38;;
65533;SDS011;53640;55.838;37.184;2023-02-12T09:24:07;4.43;;;1.15;;
65533;SDS011;53640;55.838;37.184;2023-02-12T09:26:34;1.45;;;0.73;;
65533;SDS011;53640;55.838;37.184;2023-02-12T09:31:53;1.23;;;0.63;;
65533;SDS011;53640;55.838;37.184;2023-02-12T09:34:19;1.02;;;0.75;;
65533;SDS011;53640;55.838;37.184;2023-02-12T09:36:49;4.28;;;1.00;;
65533;SDS011;53640;55.838;37.184;2023-02-12T09:39:16;1.42;;;0.70;;
65533;SDS011;53640;55.838;37.184;2023-02-12T09:41:45;1.83;;;0.70;;
65533;SDS011;53640;55.838;37.184;2023-02-12T09:47:00;3.60;;;1.60;;
65533;SDS011;53640;55.838;37.184;2023-02-12T09:49:39;2.97;;;0.82;;
65533;SDS011;53640;55.838;37.184;2023-02-12T09:52:27;4.65;;;0.95;;
65533;SDS011;53640;55.838;37.184;2023-02-12T09:54:54;1.92;;;0.70;;
65533;SDS011;53640;55.838;37.184;2023-02-12T09:57:35;2.53;;;0.75;;
65533;SDS011;53640;55.838;37.184;2023-02-12T10:00:08;1.97;;;0.70;;
65533;SDS011;53640;55.838;37.184;2023-02-12T10:02:42;1.70;;;0.73;;
65533;SDS011;53640;55.838;37.184;2023-02-12T10:05:19;1.30;;;0.70;;
65533;SDS011;53640;55.838;37.184;2023-02-12T10:10:42;0.85;;;0.70;;
65533;SDS011;53640;55.838;37.184;2023-02-12T10:13:26;3.60;;;0.90;;
65533;SDS011;53640;55.838;37.184;2023-02-12T10:16:19;2.50;;;0.85;;
65533;SDS011;53640;55.838;37.184;2023-02-12T10:21:56;1.98;;;1.00;;
65533;SDS011;53640;55.838;37.184;2023-02-12T10:27:15;2.83;;;0.70;;
65533;SDS011;53640;55.838;37.184;2023-02-12T10:29:45;2.25;;;1.17;;
65533;SDS011;53640;55.838;37.184;2023-02-12T10:35:14;2.47;;;1.00;;
65533;SDS011;53640;55.838;37.184;2023-02-12T10:37:56;1.45;;;0.82;;
65533;SDS011;53640;55.838;37.184;2023-02-12T10:42:55;1.38;;;0.77;;
65533;SDS011;53640;55.838;37.184;2023-02-12T10:45:24;2.40;;;0.70;;
65533;SDS011;53640;55.838;37.184;2023-02-12T10:48:10;2.15;;;0.98;;
65533;SDS011;53640;55.838;37.184;2023-02-12T10:50:47;1.38;;;0.82;;
65533;SDS011;53640;55.838;37.184;2023-02-12T10:53:36;1.45;;;0.90;;
65533;SDS011;53640;55.838;37.184;2023-02-12T10:56:14;0.77;;;0.73;;
65533;SDS011;53640;55.838;37.184;2023-02-12T11:07:02;1.35;;;1.13;;
65533;SDS011;53640;55.838;37.184;2023-02-12T11:09:35;3.40;;;1.75;;
65533;SDS011;53640;55.838;37.184;2023-02-12T11:17:53;2.13;;;1.00;;
65533;SDS011;53640;55.838;37.184;2023-02-12T11:23:20;0.73;;;0.70;;
65533;SDS011;53640;55.838;37.184;2023-02-12T11:26:01;1.52;;;0.80;;
65533;SDS011;53640;55.838;37.184;2023-02-12T11:28:29;2.42;;;1.45;;
65533;SDS011;53640;55.838;37.184;2023-02-12T11:30:59;1.75;;;0.90;;
65533;SDS011;53640;55.838;37.184;2023-02-12T11:33:45;1.95;;;1.15;;
65533;SDS011;53640;55.838;37.184;2023-02-12T11:36:25;2.13;;;1.00;;
65533;SDS011;53640;55.838;37.184;2023-02-12T11:38:54;3.22;;;1.00;;
65533;SDS011;53640;55.838;37.184;2023-02-12T11:41:24;5.40;;;1.70;;
65533;SDS011;53640;55.838;37.184;2023-02-12T11:43:53;1.33;;;0.88;;
65533;SDS011;53640;55.838;37.184;2023-02-12T11:46:20;2.35;;;1.30;;
65533;SDS011;53640;55.838;37.184;2023-02-12T11:48:51;1.25;;;0.90;;
65533;SDS011;53640;55.838;37.184;2023-02-12T11:51:26;1.63;;;0.90;;
65533;SDS011;53640;55.838;37.184;2023-02-12T11:53:55;0.70;;;0.60;;
65533;SDS011;53640;55.838;37.184;2023-02-12T11:56:39;3.55;;;1.10;;
65533;SDS011;53640;55.838;37.184;2023-02-12T11:59:23;2.15;;;1.00;;
65533;SDS011;53640;55.838;37.184;2023-02-12T12:01:58;2.35;;;1.08;;
65533;SDS011;53640;55.838;37.184;2023-02-12T12:04:47;1.52;;;1.05;;
65533;SDS011;53640;55.838;37.184;2023-02-12T12:07:18;1.60;;;0.90;;
65533;SDS011;53640;55.838;37.184;2023-02-12T12:10:14;2.85;;;1.02;;
65533;SDS011;53640;55.838;37.184;2023-02-12T12:12:41;0.95;;;0.80;;
65533;SDS011;53640;55.838;37.184;2023-02-12T12:15:19;0.68;;;0.60;;
65533;SDS011;53640;55.838;37.184;2023-02-12T12:24:00;1.33;;;0.90;;
65533;SDS011;53640;55.838;37.184;2023-02-12T12:26:33;2.38;;;0.80;;
65533;SDS011;53640;55.838;37.184;2023-02-12T12:29:02;0.70;;;0.60;;
65533;SDS011;53640;55.838;37.184;2023-02-12T12:31:38;0.88;;;0.70;;
65533;SDS011;53640;55.838;37.184;2023-02-12T12:34:17;5.75;;;2.20;;
65533;SDS011;53640;55.838;37.184;2023-02-12T12:39:57;1.58;;;0.88;;
65533;SDS011;53640;55.838;37.184;2023-02-12T12:48:24;2.15;;;1.00;;
65533;SDS011;53640;55.838;37.184;2023-02-12T12:51:23;2.85;;;1.08;;
65533;SDS011;53640;55.838;37.184;2023-02-12T12:57:11;2.10;;;1.10;;
65533;SDS011;53640;55.838;37.184;2023-02-12T13:05:38;0.98;;;0.80;;
65533;SDS011;53640;55.838;37.184;2023-02-12T13:08:42;2.50;;;1.33;;
65533;SDS011;53640;55.838;37.184;2023-02-12T13:16:58;0.82;;;0.80;;
65533;SDS011;53640;55.838;37.184;2023-02-12T13:25:05;1.42;;;0.80;;
65533;SDS011;53640;55.838;37.184;2023-02-12T13:27:36;1.45;;;1.00;;
65533;SDS011;53640;55.838;37.184;2023-02-12T13:33:24;3.33;;;0.82;;
65533;SDS011;53640;55.838;37.184;2023-02-12T13:35:57;1.70;;;0.60;;
65533;SDS011;53640;55.838;37.184;2023-02-12T13:38:29;2.35;;;0.80;;
65533;SDS011;53640;55.838;37.184;2023-02-12T13:41:04;2.38;;;0.80;;
65533;SDS011;53640;55.838;37.184;2023-02-12T13:52:18;1.98;;;1.00;;
65533;SDS011;53640;55.838;37.184;2023-02-12T13:55:20;2.88;;;1.50;;
65533;SDS011;53640;55.838;37.184;2023-02-12T14:01:44;1.17;;;0.90;;
65533;SDS011;53640;55.838;37.184;2023-02-12T14:07:16;2.08;;;1.17;;
65533;SDS011;53640;55.838;37.184;2023-02-12T14:14:50;1.10;;;1.00;;
65533;SDS011;53640;55.838;37.184;2023-02-12T14:19:56;7.70;;;1.20;;
65533;SDS011;53640;55.838;37.184;2023-02-12T14:28:04;4.80;;;2.00;;
65533;SDS011;53640;55.838;37.184;2023-02-12T14:30:35;2.95;;;1.30;;
65533;SDS011;53640;55.838;37.184;2023-02-12T14:40:43;1.65;;;1.00;;
65533;SDS011;53640;55.838;37.184;2023-02-12T14:44:01;2.65;;;1.45;;
65533;SDS011;53640;55.838;37.184;2023-02-12T14:48:53;2.83;;;1.55;;
65533;SDS011;53640;55.838;37.184;2023-02-12T14:51:41;3.63;;;1.60;;
65533;SDS011;53640;55.838;37.184;2023-02-12T14:56:58;3.45;;;1.50;;
65533;SDS011;53640;55.838;37.184;2023-02-12T14:59:31;2.75;;;1.58;;
65533;SDS011;53640;55.838;37.184;2023-02-12T15:02:02;2.13;;;1.40;;
65533;SDS011;53640;55.838;37.184;2023-02-12T15:04:32;3.60;;;1.80;;
65533;SDS011;53640;55.838;37.184;2023-02-12T15:07:06;4.40;;;1.23;;
65533;SDS011;53640;55.838;37.184;2023-02-12T15:09:39;4.32;;;1.40;;
65533;SDS011;53640;55.838;37.184;2023-02-12T15:20:04;3.63;;;1.55;;
65533;SDS011;53640;55.838;37.184;2023-02-12T15:22:39;2.40;;;1.38;;
65533;SDS011;53640;55.838;37.184;2023-02-12T15:27:58;3.47;;;1.58;;
65533;SDS011;53640;55.838;37.184;2023-02-12T15:33:02;3.30;;;1.30;;
65533;SDS011;53640;55.838;37.184;2023-02-12T15:35:31;3.15;;;1.60;;
65533;SDS011;53640;55.838;37.184;2023-02-12T15:38:01;2.50;;;1.40;;
65533;SDS011;53640;55.838;37.184;2023-02-12T15:40:29;2.88;;;1.33;;
65533;SDS011;53640;55.838;37.184;2023-02-12T15:42:59;11.35;;;1.88;;
65533;SDS011;53640;55.838;37.184;2023-02-12T15:45:28;1.88;;;1.52;;
65533;SDS011;53640;55.838;37.184;2023-02-12T15:53:59;5.65;;;1.65;;
65533;SDS011;53640;55.838;37.184;2023-02-12T15:56:36;3.55;;;2.00;;
65533;SDS011;53640;55.838;37.184;2023-02-12T15:59:14;6.18;;;2.25;;
65533;SDS011;53640;55.838;37.184;2023-02-12T16:01:53;5.32;;;2.28;;
65533;SDS011;53640;55.838;37.184;2023-02-12T16:04:22;5.78;;;2.20;;
65533;SDS011;53640;55.838;37.184;2023-02-12T16:06:52;5.10;;;2.72;;
65533;SDS011;53640;55.838;37.184;2023-02-12T16:09:32;4.85;;;2.03;;
65533;SDS011;53640;55.838;37.184;2023-02-12T16:12:02;3.25;;;1.77;;
65533;SDS011;53640;55.838;37.184;2023-02-12T16:14:39;4.25;;;1.60;;
65533;SDS011;53640;55.838;37.184;2023-02-12T16:17:21;4.03;;;1.50;;
65533;SDS011;53640;55.838;37.184;2023-02-12T16:19:56;3.53;;;1.98;;
65533;SDS011;53640;55.838;37.184;2023-02-12T16:22:26;6.40;;;1.90;;
65533;SDS011;53640;55.838;37.184;2023-02-12T16:24:55;3.55;;;1.63;;
65533;SDS011;53640;55.838;37.184;2023-02-12T16:27:28;6.57;;;2.15;;
65533;SDS011;53640;55.838;37.184;2023-02-12T16:30:03;4.28;;;2.35;;
65533;SDS011;53640;55.838;37.184;2023-02-12T16:32:39;4.65;;;2.05;;
65533;SDS011;53640;55.838;37.184;2023-02-12T16:50:49;4.95;;;1.77;;
65533;SDS011;53640;55.838;37.184;2023-02-12T16:55:57;7.18;;;2.30;;
65533;SDS011;53640;55.838;37.184;2023-02-12T16:58:25;5.25;;;2.28;;
65533;SDS011;53640;55.838;37.184;2023-02-12T17:00:51;5.57;;;2.17;;
65533;SDS011;53640;55.838;37.184;2023-02-12T17:03:20;4.88;;;2.05;;
65533;SDS011;53640;55.838;37.184;2023-02-12T17:05:46;7.85;;;2.58;;
65533;SDS011;53640;55.838;37.184;2023-02-12T17:08:15;4.43;;;2.03;;
65533;SDS011;53640;55.838;37.184;2023-02-12T17:10:43;3.50;;;2.05;;
65533;SDS011;53640;55.838;37.184;2023-02-12T17:13:09;5.47;;;2.13;;
65533;SDS011;53640;55.838;37.184;2023-02-12T17:15:39;3.95;;;1.70;;
65533;SDS011;53640;55.838;37.184;2023-02-12T17:18:13;3.65;;;2.00;;
65533;SDS011;53640;55.838;37.184;2023-02-12T17:20:39;4.78;;;2.13;;
65533;SDS011;53640;55.838;37.184;2023-02-12T17:23:06;3.28;;;1.70;;
65533;SDS011;53640;55.838;37.184;2023-02-12T17:25:35;3.55;;;1.80;;
65533;SDS011;53640;55.838;37.184;2023-02-12T17:28:01;5.38;;;1.90;;
65533;SDS011;53640;55.838;37.184;2023-02-12T17:30:28;4.88;;;1.67;;
65533;SDS011;53640;55.838;37.184;2023-02-12T17:32:57;2.80;;;1.35;;
65533;SDS011;53640;55.838;37.184;2023-02-12T17:35:24;2.05;;;1.17;;
65533;SDS011;53640;55.838;37.184;2023-02-12T17:37:50;2.28;;;1.30;;
65533;SDS011;53640;55.838;37.184;2023-02-12T17:40:17;3.60;;;1.30;;
65533;SDS011;53640;55.838;37.184;2023-02-12T17:42:44;4.93;;;1.60;;
65533;SDS011;53640;55.838;37.184;2023-02-12T17:45:10;10.50;;;3.85;;
65533;SDS011;53640;55.838;37.184;2023-02-12T17:47:37;5.05;;;2.28;;
65533;SDS011;53640;55.838;37.184;2023-02-12T17:50:09;6.03;;;2.63;;
65533;SDS011;53640;55.838;37.184;2023-02-12T17:52:37;4.07;;;2.20;;
65533;SDS011;53640;55.838;37.184;2023-02-12T17:55:04;3.47;;;1.98;;
65533;SDS011;53640;55.838;37.184;2023-02-12T17:57:33;6.57;;;2.10;;
65533;SDS011;53640;55.838;37.184;2023-02-12T18:00:00;8.65;;;2.83;;
65533;SDS011;53640;55.838;37.184;2023-02-12T18:02:27;4.18;;;2.10;;
65533;SDS011;53640;55.838;37.184;2023-02-12T18:04:53;7.28;;;2.60;;
65533;SDS011;53640;55.838;37.184;2023-02-12T18:07:19;6.50;;;1.90;;
65533;SDS011;53640;55.838;37.184;2023-02-12T18:09:46;3.63;;;1.55;;
65533;SDS011;53640;55.838;37.184;2023-02-12T18:12:13;2.88;;;1.55;;
65533;SDS011;53640;55.838;37.184;2023-02-12T18:14:41;5.43;;;1.67;;
65533;SDS011;53640;55.838;37.184;2023-02-12T18:17:09;5.50;;;2.25;;
65533;SDS011;53640;55.838;37.184;2023-02-12T18:19:36;2.83;;;1.70;;
65533;SDS011;53640;55.838;37.184;2023-02-12T18:22:03;4.25;;;1.70;;
65533;SDS011;53640;55.838;37.184;2023-02-12T18:24:33;3.70;;;1.30;;
65533;SDS011;53640;55.838;37.184;2023-02-12T18:27:00;2.45;;;1.42;;
65533;SDS011;53640;55.838;37.184;2023-02-12T18:29:26;3.60;;;1.40;;
65533;SDS011;53640;55.838;37.184;2023-02-12T18:31:53;1.90;;;1.25;;